createdAt,value
2022-12-14T00:04:51.768Z,90
2022-12-14T00:09:51.211Z,90
2022-12-14T00:14:51.181Z,90
2022-12-14T00:19:51.427Z,90
2022-12-14T00:24:51.700Z,90
2022-12-14T00:29:52.015Z,90
2022-12-14T00:34:51.323Z,90
2022-12-14T00:39:51.643Z,90
2022-12-14T00:44:52.075Z,90
2022-12-14T00:49:51.423Z,90
2022-12-14T00:54:51.881Z,90
2022-12-14T00:59:51.332Z,90
2022-12-14T01:04:52.067Z,90
2022-12-14T01:09:52.069Z,90
2022-12-14T01:14:51.710Z,90
2022-12-14T01:19:52.123Z,90
2022-12-14T01:24:51.635Z,90
2022-12-14T01:29:52.283Z,90
2022-12-14T01:34:51.770Z,90
2022-12-14T01:39:51.561Z,90
2022-12-14T01:44:51.954Z,90
2022-12-14T01:49:51.439Z,90
2022-12-14T01:54:53.538Z,90
2022-12-14T01:59:51.703Z,90
2022-12-14T02:04:51.455Z,90
2022-12-14T02:09:53.467Z,90
2022-12-14T02:14:51.660Z,90
2022-12-14T02:19:52.201Z,90
2022-12-14T02:24:51.725Z,90
2022-12-14T02:29:52.152Z,90
2022-12-14T02:34:51.534Z,90
2022-12-14T02:39:52.184Z,90
2022-12-14T02:44:51.236Z,90
2022-12-14T02:49:51.736Z,90
2022-12-14T02:54:51.400Z,90
2022-12-14T02:59:52.006Z,90
2022-12-14T03:04:51.753Z,90
2022-12-14T03:09:51.474Z,90
2022-12-14T03:14:51.456Z,90
2022-12-14T03:19:51.530Z,90
2022-12-14T03:24:51.945Z,90
2022-12-14T03:29:51.367Z,90
2022-12-14T03:34:52.261Z,90
2022-12-14T03:39:51.801Z,90
2022-12-14T03:44:53.472Z,90
2022-12-14T03:49:52.183Z,90
2022-12-14T03:54:52.138Z,90
2022-12-14T03:59:51.708Z,90
2022-12-14T04:04:51.941Z,90
2022-12-14T04:09:52.139Z,90
2022-12-14T04:14:51.465Z,90
2022-12-14T04:19:51.734Z,90
2022-12-14T04:24:51.513Z,90
2022-12-14T04:29:51.862Z,90
2022-12-14T04:34:51.620Z,90
2022-12-14T04:39:51.689Z,90
2022-12-14T04:44:51.745Z,90
2022-12-14T04:49:52.018Z,90
2022-12-14T04:54:51.816Z,90
2022-12-14T04:59:52.101Z,90
2022-12-14T05:04:51.544Z,90
2022-12-14T05:09:51.435Z,90
2022-12-14T05:14:51.969Z,90
2022-12-14T05:19:51.806Z,90
2022-12-14T05:24:51.389Z,90
2022-12-14T05:29:51.739Z,90
2022-12-14T05:34:51.942Z,90
2022-12-14T05:39:52.188Z,90
2022-12-14T05:44:52.313Z,90
2022-12-14T05:49:51.619Z,90
2022-12-14T05:54:52.196Z,90
2022-12-14T05:59:51.505Z,90
2022-12-14T06:04:51.849Z,90
2022-12-14T06:09:52.349Z,90
2022-12-14T06:14:51.730Z,90
2022-12-14T06:20:36.303Z,90
2022-12-14T06:24:52.139Z,90
2022-12-14T06:29:51.489Z,90
2022-12-14T06:34:51.654Z,90
2022-12-14T06:39:54.846Z,90
2022-12-14T06:44:52.180Z,90
2022-12-14T06:49:51.549Z,90
2022-12-14T06:54:51.859Z,90
2022-12-14T06:59:51.931Z,90
2022-12-14T07:04:52.032Z,90
2022-12-14T07:09:51.641Z,90
2022-12-14T07:14:52.255Z,90
2022-12-14T07:19:52.179Z,90
2022-12-14T07:24:51.760Z,91
2022-12-14T07:29:52.173Z,91
2022-12-14T07:34:52.221Z,90
2022-12-14T07:39:51.952Z,90
2022-12-14T07:44:51.464Z,91
2022-12-14T07:49:51.821Z,91
2022-12-14T07:54:52.291Z,91
2022-12-14T07:59:57.795Z,91
2022-12-14T08:04:52.333Z,91
2022-12-14T08:09:51.889Z,91
2022-12-14T08:14:52.229Z,91
2022-12-14T08:19:51.686Z,91
2022-12-14T08:24:54.076Z,91
2022-12-14T08:29:51.965Z,91
2022-12-14T08:34:52.422Z,91
2022-12-14T08:39:51.997Z,91
2022-12-14T08:44:52.392Z,91
2022-12-14T08:49:52.144Z,91
2022-12-14T08:54:52.359Z,91
2022-12-14T09:00:02.871Z,91
2022-12-14T09:04:51.519Z,91
2022-12-14T09:09:52.417Z,91
2022-12-14T09:14:52.356Z,91
2022-12-14T09:19:52.234Z,91
2022-12-14T09:24:52.374Z,92
2022-12-14T09:29:51.677Z,92
2022-12-14T09:34:51.648Z,91
2022-12-14T09:39:52.191Z,91
2022-12-14T09:44:51.528Z,90
2022-12-14T09:49:52.158Z,90
2022-12-14T09:54:51.990Z,88
2022-12-14T09:59:52.489Z,88
2022-12-14T10:04:52.409Z,88
2022-12-14T10:09:52.544Z,88
2022-12-14T10:14:51.889Z,87
2022-12-14T10:19:51.887Z,87
2022-12-14T10:24:52.428Z,86
2022-12-14T10:29:51.792Z,86
2022-12-14T10:34:52.153Z,85
2022-12-14T10:39:54.048Z,85
2022-12-14T10:45:38.955Z,83
2022-12-14T10:49:51.953Z,83
2022-12-14T10:54:52.252Z,83
2022-12-14T11:00:10.065Z,83
2022-12-14T11:04:51.855Z,83
2022-12-14T11:09:52.447Z,83
2022-12-14T11:14:52.318Z,82
2022-12-14T11:19:52.382Z,82
2022-12-14T11:24:51.683Z,80
2022-12-14T11:29:52.022Z,80
2022-12-14T11:34:52.321Z,80
2022-12-14T11:39:51.690Z,80
2022-12-14T11:44:52.041Z,79
2022-12-14T11:49:52.523Z,79
2022-12-14T11:54:51.848Z,78
2022-12-14T11:59:52.195Z,78
2022-12-14T12:04:52.443Z,77
2022-12-14T12:09:51.972Z,77
2022-12-14T12:14:52.243Z,77
2022-12-14T12:19:52.504Z,77
2022-12-14T12:25:28.456Z,77
2022-12-14T12:29:52.165Z,77
2022-12-14T12:34:52.547Z,77
2022-12-14T12:39:52.352Z,77
2022-12-14T12:44:51.683Z,77
2022-12-14T12:49:52.028Z,77
2022-12-14T12:54:52.343Z,77
2022-12-14T12:59:52.664Z,77
2022-12-14T13:04:53.181Z,75
2022-12-14T13:09:52.510Z,75
2022-12-14T13:14:52.084Z,76
2022-12-14T13:19:56.057Z,76
2022-12-14T13:25:00.264Z,76
2022-12-14T13:29:51.741Z,76
2022-12-14T13:34:52.023Z,76
2022-12-14T13:39:52.442Z,76
2022-12-14T13:44:51.726Z,76
2022-12-14T13:50:36.225Z,76
2022-12-14T13:54:58.247Z,75
2022-12-14T13:59:52.629Z,75
2022-12-14T14:04:51.893Z,76
2022-12-14T14:09:52.179Z,76
2022-12-14T14:14:52.524Z,76
2022-12-14T14:19:51.752Z,76
2022-12-14T14:24:52.145Z,76
2022-12-14T14:29:52.671Z,76
2022-12-14T14:34:52.094Z,76
2022-12-14T14:40:16.673Z,76
2022-12-14T14:44:52.076Z,76
2022-12-14T14:49:52.178Z,76
2022-12-14T14:55:53.702Z,76
2022-12-14T14:59:51.745Z,76
2022-12-14T15:04:57.492Z,76
2022-12-14T15:09:51.991Z,76
2022-12-14T15:14:52.548Z,76
2022-12-14T15:19:52.671Z,76
2022-12-14T15:24:51.855Z,76
2022-12-14T15:29:51.843Z,76
2022-12-14T15:34:52.581Z,77
2022-12-14T15:39:51.980Z,77
2022-12-14T15:44:51.940Z,77
2022-12-14T15:50:04.245Z,77
2022-12-14T15:54:52.634Z,77
2022-12-14T15:59:51.916Z,77
2022-12-14T16:04:54.399Z,77
2022-12-14T16:09:52.219Z,77
2022-12-14T16:14:52.260Z,77
2022-12-14T16:20:01.064Z,77
2022-12-14T16:24:51.832Z,78
2022-12-14T16:29:52.259Z,78
2022-12-14T16:34:59.203Z,78
2022-12-14T16:39:51.973Z,78
2022-12-14T16:44:52.274Z,78
2022-12-14T16:49:52.620Z,78
2022-12-14T16:54:52.254Z,78
2022-12-14T16:59:52.537Z,78
2022-12-14T17:04:52.181Z,79
2022-12-14T17:09:51.925Z,79
2022-12-14T17:14:54.116Z,80
2022-12-14T17:19:52.628Z,80
2022-12-14T17:24:51.858Z,80
2022-12-14T17:29:52.170Z,80
2022-12-14T17:34:52.523Z,81
2022-12-14T17:39:52.289Z,81
2022-12-14T17:44:52.572Z,81
2022-12-14T17:49:52.657Z,81
2022-12-14T17:54:52.105Z,81
2022-12-14T17:59:52.748Z,81
2022-12-14T18:04:52.300Z,81
2022-12-14T18:09:52.825Z,81
2022-12-14T18:14:52.361Z,82
2022-12-14T18:19:54.044Z,82
2022-12-14T18:24:53.521Z,82
2022-12-14T18:29:52.861Z,82
2022-12-14T18:34:52.295Z,83
2022-12-14T18:39:54.149Z,83
2022-12-14T18:44:53.623Z,83
2022-12-14T18:49:52.079Z,83
2022-12-14T18:54:52.404Z,84
2022-12-14T18:59:52.683Z,84
2022-12-14T19:04:52.208Z,85
2022-12-14T19:09:52.583Z,85
2022-12-14T19:14:52.749Z,85
2022-12-14T19:19:52.154Z,85
2022-12-14T19:24:52.918Z,85
2022-12-14T19:29:52.431Z,85
2022-12-14T19:34:52.894Z,85
2022-12-14T19:39:52.205Z,85
2022-12-14T19:44:52.577Z,85
2022-12-14T19:49:51.964Z,85
2022-12-14T19:54:52.184Z,85
2022-12-14T19:59:52.347Z,85
2022-12-14T20:04:52.703Z,85
2022-12-14T20:09:52.097Z,85
2022-12-14T20:14:52.532Z,85
2022-12-14T20:19:52.859Z,85
2022-12-14T20:24:52.204Z,85
2022-12-14T20:29:52.526Z,85
2022-12-14T20:34:51.886Z,85
2022-12-14T20:39:52.002Z,85
2022-12-14T20:44:52.527Z,85
2022-12-14T20:49:52.839Z,85
2022-12-14T20:54:52.504Z,86
2022-12-14T20:59:52.193Z,86
2022-12-14T21:04:52.554Z,87
2022-12-14T21:09:52.705Z,87
2022-12-14T21:14:52.237Z,87
2022-12-14T21:19:52.893Z,87
2022-12-14T21:25:05.788Z,87
2022-12-14T21:29:52.757Z,87
2022-12-14T21:34:52.815Z,88
2022-12-14T21:39:55.948Z,88
2022-12-14T21:44:52.636Z,88
2022-12-14T21:49:52.152Z,88
2022-12-14T21:54:52.834Z,88
2022-12-14T21:59:52.656Z,88
2022-12-14T22:04:52.836Z,88
2022-12-14T22:09:52.179Z,88
2022-12-14T22:14:52.031Z,89
2022-12-14T22:19:52.418Z,89
2022-12-14T22:24:52.333Z,88
2022-12-14T22:29:52.623Z,88
2022-12-14T22:34:52.316Z,88
2022-12-14T22:39:52.395Z,88
2022-12-14T22:44:52.709Z,89
2022-12-14T22:49:52.108Z,89
2022-12-14T22:54:53.760Z,89
2022-12-14T22:59:52.283Z,89
2022-12-14T23:04:52.931Z,89
2022-12-14T23:09:52.408Z,89
2022-12-14T23:14:52.879Z,89
2022-12-14T23:19:52.605Z,89
2022-12-14T23:24:52.936Z,89
2022-12-14T23:29:52.281Z,89
2022-12-14T23:34:52.679Z,88
2022-12-14T23:39:52.329Z,88
2022-12-14T23:44:52.904Z,88
2022-12-14T23:49:52.179Z,88
2022-12-14T23:54:52.820Z,88
2022-12-14T23:59:52.847Z,88
